createdAt,value
2023-01-19T00:01:10.903Z,30.17
2023-01-19T00:03:41.018Z,30.30
2023-01-19T00:06:12.100Z,30.07
2023-01-19T00:08:44.778Z,31.27
2023-01-19T00:11:17.591Z,29.47
2023-01-19T00:13:50.658Z,29.93
2023-01-19T00:16:23.310Z,27.70
2023-01-19T00:18:55.756Z,28.03
2023-01-19T00:21:25.877Z,27.27
2023-01-19T00:23:55.910Z,28.50
2023-01-19T00:26:28.433Z,26.13
2023-01-19T00:29:04.830Z,25.43
2023-01-19T00:31:34.961Z,26.60
2023-01-19T00:34:05.152Z,25.73
2023-01-19T00:36:35.422Z,23.67
2023-01-19T00:39:05.562Z,25.43
2023-01-19T00:41:50.702Z,26.97
2023-01-19T00:44:20.853Z,25.97
2023-01-19T00:46:50.822Z,26.10
2023-01-19T00:49:20.879Z,24.10
2023-01-19T00:51:50.861Z,24.43
2023-01-19T00:54:21.184Z,26.70
2023-01-19T00:56:54.229Z,23.13
2023-01-19T00:59:25.837Z,24.50
2023-01-19T01:01:56.036Z,25.23
2023-01-19T01:04:26.383Z,23.93
2023-01-19T01:06:56.403Z,24.57
2023-01-19T01:09:26.467Z,24.53
2023-01-19T01:12:00.561Z,23.30
2023-01-19T01:14:30.819Z,23.57
2023-01-19T01:17:03.723Z,22.70
2023-01-19T01:19:33.778Z,22.93
2023-01-19T01:22:03.945Z,23.87
2023-01-19T01:24:33.987Z,24.07
2023-01-19T01:27:07.291Z,23.27
2023-01-19T01:29:46.540Z,22.40
2023-01-19T01:32:16.861Z,24.27
2023-01-19T01:34:46.839Z,24.53
2023-01-19T01:37:16.789Z,25.17
2023-01-19T01:39:46.811Z,23.43
2023-01-19T01:42:22.071Z,22.47
2023-01-19T01:44:55.537Z,20.60
2023-01-19T01:47:32.642Z,21.67
2023-01-19T01:50:13.850Z,22.87
2023-01-19T01:53:07.656Z,22.77
2023-01-19T01:55:43.052Z,22.23
2023-01-19T01:58:17.886Z,23.67
2023-01-19T02:01:00.330Z,23.90
2023-01-19T02:03:32.676Z,23.77
2023-01-19T02:06:08.270Z,23.40
2023-01-19T02:08:57.386Z,22.00
2023-01-19T02:11:40.443Z,24.30
2023-01-19T02:14:13.295Z,23.20
2023-01-19T02:16:43.549Z,27.47
2023-01-19T02:19:19.841Z,21.00
2023-01-19T02:21:56.008Z,24.00
2023-01-19T02:24:29.457Z,26.33
2023-01-19T02:27:00.778Z,17.10
2023-01-19T02:29:31.909Z,20.70
2023-01-19T02:32:03.265Z,22.73
2023-01-19T02:34:33.526Z,23.37
2023-01-19T02:37:07.708Z,21.17
2023-01-19T02:39:45.893Z,22.87
2023-01-19T02:42:22.327Z,22.13
2023-01-19T02:44:55.640Z,21.47
2023-01-19T02:47:26.097Z,20.23
2023-01-19T02:49:59.481Z,24.10
2023-01-19T02:52:30.588Z,23.63
2023-01-19T02:55:18.220Z,21.70
2023-01-19T02:57:58.964Z,21.03
2023-01-19T03:00:40.093Z,21.87
2023-01-19T03:03:30.866Z,23.67
2023-01-19T03:06:28.707Z,22.97
2023-01-19T03:09:05.014Z,23.70
2023-01-19T03:11:42.965Z,22.83
2023-01-19T03:14:19.566Z,23.53
2023-01-19T03:16:55.159Z,23.13
2023-01-19T03:19:27.716Z,24.67
2023-01-19T03:22:01.584Z,24.93
2023-01-19T03:24:37.819Z,24.17
2023-01-19T03:27:15.106Z,25.37
2023-01-19T03:29:50.952Z,26.57
2023-01-19T03:32:25.094Z,23.37
2023-01-19T03:34:57.487Z,21.50
2023-01-19T03:37:30.215Z,22.17
2023-01-19T03:40:00.698Z,21.63
2023-01-19T03:42:33.604Z,24.13
2023-01-19T03:45:04.592Z,21.43
2023-01-19T03:47:35.394Z,23.00
2023-01-19T03:50:10.095Z,23.77
2023-01-19T03:52:40.068Z,23.87
2023-01-19T03:55:10.476Z,24.07
2023-01-19T03:57:43.143Z,23.53
2023-01-19T04:00:15.489Z,26.53
2023-01-19T04:02:45.506Z,26.93
2023-01-19T04:05:15.598Z,26.27
2023-01-19T04:07:45.843Z,21.70
2023-01-19T04:10:16.384Z,19.70
2023-01-19T04:12:49.243Z,22.73
2023-01-19T04:15:19.577Z,24.57
2023-01-19T04:17:50.851Z,24.17
2023-01-19T04:20:21.788Z,23.73
2023-01-19T04:22:51.946Z,23.77
2023-01-19T04:25:22.005Z,21.50
2023-01-19T04:27:58.466Z,23.60
2023-01-19T04:30:28.686Z,18.83
2023-01-19T04:32:59.027Z,17.87
2023-01-19T04:35:29.271Z,24.37
2023-01-19T04:37:59.375Z,23.53
2023-01-19T04:40:29.420Z,23.43
2023-01-19T04:43:02.340Z,17.60
2023-01-19T04:45:32.737Z,22.30
2023-01-19T04:48:04.238Z,20.17
2023-01-19T04:50:34.890Z,19.73
2023-01-19T04:53:04.835Z,23.40
2023-01-19T04:55:34.799Z,23.13
2023-01-19T04:58:07.491Z,21.30
2023-01-19T05:00:37.660Z,21.67
2023-01-19T05:03:07.689Z,19.93
2023-01-19T05:05:37.956Z,23.73
2023-01-19T05:08:08.392Z,13.97
2023-01-19T05:10:39.171Z,20.50
2023-01-19T05:13:11.718Z,14.93
2023-01-19T05:15:52.145Z,22.37
2023-01-19T05:18:22.147Z,21.97
2023-01-19T05:20:52.076Z,23.70
2023-01-19T05:23:32.810Z,21.20
2023-01-19T05:26:03.858Z,23.30
2023-01-19T05:28:37.262Z,24.70
2023-01-19T05:31:07.491Z,23.10
2023-01-19T05:33:37.473Z,23.43
2023-01-19T05:36:07.641Z,25.53
2023-01-19T05:38:37.670Z,24.03
2023-01-19T05:41:08.133Z,21.83
2023-01-19T05:43:41.007Z,23.40
2023-01-19T05:46:15.462Z,22.73
2023-01-19T05:48:45.497Z,23.37
2023-01-19T05:51:15.500Z,22.50
2023-01-19T05:53:45.616Z,21.87
2023-01-19T05:56:15.593Z,22.10
2023-01-19T05:58:48.174Z,23.33
2023-01-19T06:01:18.378Z,22.27
2023-01-19T06:03:48.791Z,22.10
2023-01-19T06:06:19.010Z,23.50
2023-01-19T06:08:49.069Z,22.83
2023-01-19T06:11:19.150Z,23.30
2023-01-19T06:13:51.643Z,21.13
2023-01-19T06:16:21.609Z,24.03
2023-01-19T06:18:51.621Z,20.83
2023-01-19T06:21:21.570Z,21.50
2023-01-19T06:23:51.567Z,23.87
2023-01-19T06:26:21.524Z,22.43
2023-01-19T06:28:54.403Z,23.40
2023-01-19T06:31:24.390Z,24.40
2023-01-19T06:33:54.437Z,25.53
2023-01-19T06:36:24.400Z,25.27
2023-01-19T06:38:54.294Z,23.87
2023-01-19T06:41:24.298Z,23.70
2023-01-19T06:43:57.067Z,25.00
2023-01-19T06:46:27.512Z,26.63
2023-01-19T06:48:57.857Z,24.53
2023-01-19T06:51:28.152Z,25.23
2023-01-19T06:53:58.323Z,25.60
2023-01-19T06:56:28.419Z,25.47
2023-01-19T06:59:01.394Z,24.57
2023-01-19T07:01:32.903Z,24.03
2023-01-19T07:04:02.850Z,24.37
2023-01-19T07:06:32.814Z,24.50
2023-01-19T07:09:07.133Z,23.73
2023-01-19T07:11:37.135Z,25.13
2023-01-19T07:14:09.799Z,24.47
2023-01-19T07:16:39.890Z,24.20
2023-01-19T07:19:10.814Z,24.97
2023-01-19T07:21:40.911Z,24.50
2023-01-19T07:24:11.234Z,23.90
2023-01-19T07:26:41.279Z,24.77
2023-01-19T07:29:13.904Z,24.40
2023-01-19T07:31:43.948Z,22.60
2023-01-19T07:34:13.967Z,23.77
2023-01-19T07:36:44.230Z,25.43
2023-01-19T07:39:14.395Z,22.43
2023-01-19T07:41:44.442Z,24.77
2023-01-19T07:44:17.006Z,22.57
2023-01-19T07:51:13.073Z,20.73
2023-01-19T08:00:25.494Z,15.90
2023-01-19T08:03:01.872Z,16.73
2023-01-19T08:05:32.683Z,21.00
2023-01-19T08:08:05.161Z,18.70
2023-01-19T08:10:35.384Z,16.83
2023-01-19T08:13:08.685Z,20.00
2023-01-19T08:15:41.468Z,19.27
2023-01-19T08:18:18.043Z,21.17
2023-01-19T08:20:52.517Z,21.43
2023-01-19T08:23:22.442Z,19.47
2023-01-19T08:25:52.435Z,21.77
2023-01-19T08:28:26.543Z,19.83
2023-01-19T08:31:18.326Z,20.57
2023-01-19T08:33:49.769Z,21.03
2023-01-19T08:36:19.826Z,20.00
2023-01-19T08:38:50.458Z,21.03
2023-01-19T08:41:20.571Z,18.60
2023-01-19T08:43:50.980Z,19.07
2023-01-19T08:46:23.559Z,19.20
2023-01-19T08:48:53.547Z,18.10
2023-01-19T08:51:23.722Z,17.00
2023-01-19T08:53:53.769Z,18.23
2023-01-19T08:56:23.782Z,17.57
2023-01-19T08:59:08.261Z,16.93
2023-01-19T09:01:42.139Z,18.40
2023-01-19T09:04:12.400Z,17.07
2023-01-19T09:06:42.531Z,28.17
2023-01-19T09:09:12.758Z,25.33
2023-01-19T09:11:42.743Z,19.40
2023-01-19T09:14:12.932Z,22.33
2023-01-19T09:16:45.669Z,18.77
2023-01-19T09:19:15.613Z,17.73
2023-01-19T09:21:45.672Z,16.83
2023-01-19T09:24:15.586Z,17.53
2023-01-19T09:26:45.584Z,17.60
2023-01-19T09:29:15.602Z,16.23
2023-01-19T09:31:48.911Z,16.53
2023-01-19T09:34:19.368Z,16.20
2023-01-19T09:36:50.075Z,16.53
2023-01-19T09:39:20.435Z,15.83
2023-01-19T09:42:06.062Z,15.07
2023-01-19T09:44:41.210Z,15.03
2023-01-19T09:47:22.951Z,16.47
2023-01-19T09:49:58.432Z,13.40
2023-01-19T09:52:28.521Z,13.77
2023-01-19T09:54:59.807Z,13.17
2023-01-19T09:57:32.284Z,13.43
2023-01-19T10:00:02.260Z,12.93
2023-01-19T10:02:49.660Z,13.53
2023-01-19T10:05:31.695Z,12.43
2023-01-19T10:08:21.518Z,13.10
2023-01-19T10:10:59.588Z,12.70
2023-01-19T10:13:40.407Z,11.93
2023-01-19T10:16:24.312Z,11.70
2023-01-19T10:19:00.788Z,12.00
2023-01-19T10:21:34.453Z,12.33
2023-01-19T10:24:09.608Z,13.27
2023-01-19T10:26:45.330Z,11.80
2023-01-19T10:29:24.905Z,11.43
2023-01-19T10:31:55.276Z,10.90
2023-01-19T10:34:27.879Z,11.80
2023-01-19T10:37:07.231Z,12.00
2023-01-19T10:39:38.782Z,11.30
2023-01-19T10:42:09.391Z,11.33
2023-01-19T10:44:41.431Z,10.87
2023-01-19T10:47:19.411Z,10.80
2023-01-19T10:49:52.430Z,11.90
2023-01-19T10:52:28.895Z,10.70
2023-01-19T10:55:00.176Z,10.53
2023-01-19T10:57:34.537Z,10.30
2023-01-19T11:00:05.049Z,10.27
2023-01-19T11:02:36.172Z,10.63
2023-01-19T11:05:27.257Z,10.30
2023-01-19T11:07:57.315Z,9.83
2023-01-19T11:10:30.147Z,10.07
2023-01-19T11:13:07.662Z,10.23
2023-01-19T11:15:44.504Z,10.90
2023-01-19T11:18:27.049Z,10.37
2023-01-19T11:21:02.689Z,10.10
2023-01-19T11:23:37.653Z,9.77
2023-01-19T11:26:09.119Z,10.07
2023-01-19T11:28:45.040Z,14.87
2023-01-19T11:31:35.248Z,17.77
2023-01-19T11:34:07.056Z,11.03
2023-01-19T11:36:39.977Z,10.97
2023-01-19T11:39:24.920Z,10.60
2023-01-19T11:41:57.612Z,11.27
2023-01-19T11:44:32.431Z,11.00
2023-01-19T11:47:17.852Z,10.97
2023-01-19T11:50:03.454Z,11.13
2023-01-19T11:52:43.444Z,11.43
2023-01-19T11:55:22.768Z,11.13
2023-01-19T11:57:56.045Z,10.73
2023-01-19T12:00:29.367Z,11.57
2023-01-19T12:03:06.099Z,10.90
2023-01-19T12:05:48.283Z,11.97
2023-01-19T12:08:27.155Z,11.23
2023-01-19T12:11:03.075Z,12.20
2023-01-19T12:13:34.704Z,11.87
2023-01-19T12:16:09.997Z,11.27
2023-01-19T12:18:43.448Z,11.30
2023-01-19T12:21:15.549Z,11.67
2023-01-19T12:23:59.192Z,11.40
2023-01-19T12:26:33.856Z,11.90
2023-01-19T12:29:13.838Z,12.27
2023-01-19T12:31:45.630Z,11.17
2023-01-19T12:34:46.713Z,12.50
2023-01-19T12:37:43.968Z,11.60
2023-01-19T12:40:35.719Z,10.53
2023-01-19T12:43:08.852Z,12.67
2023-01-19T12:45:40.168Z,12.00
2023-01-19T12:48:27.616Z,11.80
2023-01-19T12:50:57.593Z,9.23
2023-01-19T12:53:27.695Z,12.40
2023-01-19T12:56:10.118Z,11.90
2023-01-19T12:58:40.269Z,12.10
2023-01-19T13:01:21.107Z,12.97
2023-01-19T13:04:06.745Z,13.23
2023-01-19T13:07:10.360Z,12.97
2023-01-19T13:09:43.284Z,12.60
2023-01-19T13:12:23.152Z,13.40
2023-01-19T13:14:53.516Z,12.53
2023-01-19T13:17:33.178Z,12.33
2023-01-19T13:20:07.912Z,12.43
2023-01-19T13:22:53.735Z,13.57
2023-01-19T13:25:36.704Z,12.07
2023-01-19T13:28:13.560Z,12.53
2023-01-19T13:31:03.907Z,13.27
2023-01-19T13:33:45.197Z,13.67
2023-01-19T13:36:32.605Z,12.67
2023-01-19T13:39:06.743Z,12.97
2023-01-19T13:41:41.827Z,13.00
2023-01-19T13:44:20.204Z,13.50
2023-01-19T13:46:50.787Z,13.70
2023-01-19T13:49:24.114Z,12.27
2023-01-19T13:52:08.221Z,12.67
2023-01-19T13:54:38.245Z,10.37
2023-01-19T13:57:08.237Z,12.13
2023-01-19T13:59:40.977Z,12.83
2023-01-19T14:02:16.929Z,13.83
2023-01-19T14:04:47.149Z,12.77
2023-01-19T14:07:26.457Z,11.13
2023-01-19T14:10:07.305Z,13.37
2023-01-19T14:12:45.583Z,12.27
2023-01-19T14:15:23.952Z,15.30
2023-01-19T14:18:25.194Z,13.57
2023-01-19T14:20:57.055Z,16.37
2023-01-19T14:23:41.988Z,12.33
2023-01-19T14:26:52.046Z,12.40
2023-01-19T14:29:26.515Z,11.53
2023-01-19T14:32:09.972Z,13.73
2023-01-19T14:34:42.024Z,13.40
2023-01-19T14:37:29.804Z,14.80
2023-01-19T14:40:04.847Z,11.37
2023-01-19T14:42:37.703Z,14.07
2023-01-19T14:45:21.316Z,13.97
2023-01-19T14:48:01.187Z,14.93
2023-01-19T14:50:35.422Z,14.23
2023-01-19T14:53:07.587Z,13.93
2023-01-19T14:55:41.396Z,13.03
2023-01-19T14:58:13.934Z,13.63
2023-01-19T15:00:43.980Z,15.67
2023-01-19T15:03:16.707Z,15.07
2023-01-19T15:05:49.548Z,16.53
2023-01-19T15:08:22.887Z,15.67
2023-01-19T15:10:52.934Z,15.73
2023-01-19T15:13:25.472Z,16.20
2023-01-19T15:15:55.784Z,16.77
2023-01-19T15:18:30.279Z,17.63
2023-01-19T15:21:02.892Z,15.50
2023-01-19T15:23:32.965Z,15.60
2023-01-19T15:26:04.075Z,16.70
2023-01-19T15:28:34.427Z,16.67
2023-01-19T15:31:04.447Z,16.50
2023-01-19T15:33:37.314Z,17.67
2023-01-19T15:36:08.400Z,17.47
2023-01-19T15:38:38.548Z,18.07
2023-01-19T15:41:15.122Z,18.70
2023-01-19T15:43:45.117Z,19.63
2023-01-19T15:46:17.480Z,17.23
2023-01-19T15:48:50.391Z,18.93
2023-01-19T15:51:22.235Z,18.17
2023-01-19T15:53:52.996Z,18.67
2023-01-19T15:56:27.670Z,18.47
2023-01-19T15:58:58.730Z,17.70
2023-01-19T16:01:32.762Z,18.77
2023-01-19T16:04:07.298Z,17.80
2023-01-19T16:06:37.245Z,19.90
2023-01-19T16:09:07.773Z,19.50
2023-01-19T16:11:38.399Z,19.70
2023-01-19T16:14:08.466Z,19.03
2023-01-19T16:16:38.707Z,18.27
2023-01-19T16:19:11.376Z,19.80
2023-01-19T16:21:41.371Z,16.37
2023-01-19T16:24:11.552Z,18.67
2023-01-19T16:26:41.543Z,18.70
2023-01-19T16:29:12.161Z,17.83
2023-01-19T16:31:45.561Z,18.43
2023-01-19T16:34:18.277Z,21.30
2023-01-19T16:36:48.333Z,15.83
2023-01-19T16:39:33.738Z,18.90
2023-01-19T16:42:04.013Z,25.73
2023-01-19T16:44:33.951Z,19.23
2023-01-19T16:47:04.289Z,20.13
2023-01-19T16:49:37.036Z,18.60
2023-01-19T16:52:07.330Z,23.27
2023-01-19T16:54:39.416Z,20.03
2023-01-19T16:57:09.471Z,20.17
2023-01-19T16:59:40.047Z,18.97
2023-01-19T17:02:11.098Z,19.57
2023-01-19T17:04:43.754Z,20.60
2023-01-19T17:07:19.388Z,18.10
2023-01-19T17:09:49.537Z,19.17
2023-01-19T17:12:19.481Z,20.20
2023-01-19T17:14:52.674Z,19.93
2023-01-19T17:17:22.867Z,17.50
2023-01-19T17:19:55.653Z,18.13
2023-01-19T17:22:25.684Z,19.40
2023-01-19T17:24:55.709Z,19.33
2023-01-19T17:27:26.162Z,18.93
2023-01-19T17:29:59.721Z,18.40
2023-01-19T17:32:30.808Z,18.60
2023-01-19T17:35:04.521Z,19.53
2023-01-19T17:37:34.527Z,18.27
2023-01-19T17:40:04.574Z,19.30
2023-01-19T17:42:42.518Z,17.83
2023-01-19T17:45:27.783Z,18.03
2023-01-19T17:47:57.821Z,18.77
2023-01-19T17:50:30.428Z,16.63
2023-01-19T17:53:00.421Z,18.83
2023-01-19T17:55:30.479Z,18.73
2023-01-19T17:58:03.672Z,18.83
2023-01-19T18:00:33.686Z,21.20
2023-01-19T18:03:03.898Z,23.77
2023-01-19T18:05:36.572Z,18.03
2023-01-19T18:08:10.272Z,18.77
2023-01-19T18:10:40.946Z,19.73
2023-01-19T18:13:11.051Z,19.07
2023-01-19T18:15:42.728Z,19.73
2023-01-19T18:18:12.774Z,19.00
2023-01-19T18:20:45.845Z,19.63
2023-01-19T18:23:16.138Z,18.33
2023-01-19T18:25:48.606Z,21.03
2023-01-19T18:28:18.614Z,20.47
2023-01-19T18:30:49.178Z,20.20
2023-01-19T18:33:19.343Z,19.73
2023-01-19T18:35:54.981Z,18.27
2023-01-19T18:38:27.402Z,18.63
2023-01-19T18:41:04.190Z,18.77
2023-01-19T18:43:34.643Z,19.27
2023-01-19T18:46:05.450Z,19.47
2023-01-19T18:48:42.946Z,19.77
2023-01-19T18:51:17.623Z,19.40
2023-01-19T18:53:48.868Z,20.07
2023-01-19T18:56:20.226Z,19.73
2023-01-19T18:58:50.464Z,20.10
2023-01-19T19:01:23.629Z,18.57
2023-01-19T19:03:56.179Z,18.40
2023-01-19T19:06:31.913Z,20.60
2023-01-19T19:09:02.040Z,19.80
2023-01-19T19:11:32.234Z,19.90
2023-01-19T19:14:07.426Z,20.00
2023-01-19T19:16:39.483Z,28.83
2023-01-19T19:19:11.952Z,20.07
2023-01-19T19:21:46.926Z,27.67
2023-01-19T19:24:19.922Z,20.00
2023-01-19T19:26:55.156Z,19.10
2023-01-19T19:29:26.252Z,18.93
2023-01-19T19:31:56.997Z,19.93
2023-01-19T19:34:27.968Z,20.80
2023-01-19T19:37:01.407Z,35.90
2023-01-19T19:39:34.267Z,23.93
2023-01-19T19:42:05.892Z,21.07
2023-01-19T19:44:36.154Z,20.30
2023-01-19T19:47:06.194Z,20.00
2023-01-19T19:49:39.172Z,19.23
2023-01-19T19:52:14.001Z,20.80
2023-01-19T19:54:49.057Z,19.90
2023-01-19T19:57:18.959Z,19.50
2023-01-19T19:59:51.704Z,20.03
2023-01-19T20:02:23.302Z,19.13
2023-01-19T20:04:53.231Z,19.23
2023-01-19T20:07:25.804Z,19.73
2023-01-19T20:09:56.187Z,19.37
2023-01-19T20:12:26.247Z,19.97
2023-01-19T20:14:56.174Z,24.43
2023-01-19T20:17:26.347Z,20.17
2023-01-19T20:19:56.340Z,21.40
2023-01-19T20:22:29.025Z,19.43
2023-01-19T20:24:59.196Z,19.63
2023-01-19T20:27:29.288Z,19.27
2023-01-19T20:30:00.389Z,20.43
2023-01-19T20:32:30.334Z,19.33
2023-01-19T20:35:00.289Z,17.97
2023-01-19T20:37:32.876Z,18.67
2023-01-19T20:40:02.798Z,18.63
2023-01-19T20:42:32.768Z,18.10
2023-01-19T20:45:02.774Z,18.33
2023-01-19T20:47:32.899Z,18.97
2023-01-19T20:50:02.949Z,18.23
2023-01-19T20:52:37.471Z,20.00
2023-01-19T20:55:08.938Z,18.67
2023-01-19T20:57:38.918Z,18.17
2023-01-19T21:00:10.256Z,19.43
2023-01-19T21:02:40.381Z,19.57
2023-01-19T21:05:12.236Z,18.17
2023-01-19T21:07:45.111Z,18.60
2023-01-19T21:10:16.362Z,22.57
2023-01-19T21:12:46.650Z,18.33
2023-01-19T21:15:18.064Z,18.13
2023-01-19T21:17:47.984Z,18.63
2023-01-19T21:20:18.207Z,18.93
2023-01-19T21:22:50.839Z,18.63
2023-01-19T21:25:20.971Z,18.10
2023-01-19T21:27:50.955Z,18.90
2023-01-19T21:30:23.898Z,18.90
2023-01-19T21:32:53.892Z,18.03
2023-01-19T21:35:26.682Z,24.20
2023-01-19T21:38:00.638Z,19.00
2023-01-19T21:40:30.941Z,18.07
2023-01-19T21:43:01.161Z,17.87
2023-01-19T21:45:31.355Z,17.77
2023-01-19T21:48:01.387Z,18.23
2023-01-19T21:50:31.842Z,18.50
2023-01-19T21:53:06.023Z,18.50
2023-01-19T21:55:36.786Z,19.70
2023-01-19T21:58:07.479Z,19.37
2023-01-19T22:00:37.502Z,18.30
2023-01-19T22:03:09.315Z,18.50
2023-01-19T22:05:40.084Z,18.73
2023-01-19T22:08:13.052Z,18.03
2023-01-19T22:10:43.011Z,18.30
2023-01-19T22:13:13.034Z,18.00
2023-01-19T22:15:43.107Z,17.33
2023-01-19T22:18:13.313Z,18.73
2023-01-19T22:20:43.424Z,19.30
2023-01-19T22:23:16.130Z,18.00
2023-01-19T22:25:46.224Z,18.83
2023-01-19T22:28:16.279Z,17.53
2023-01-19T22:30:46.370Z,18.97
2023-01-19T22:33:16.392Z,18.07
2023-01-19T22:35:46.482Z,17.53
2023-01-19T22:38:19.155Z,17.90
2023-01-19T22:40:49.174Z,17.90
2023-01-19T22:43:19.151Z,18.77
2023-01-19T22:45:49.104Z,18.20
2023-01-19T22:48:20.179Z,18.03
2023-01-19T22:50:50.345Z,18.50
2023-01-19T22:53:22.908Z,18.23
2023-01-19T22:55:52.848Z,18.67
2023-01-19T22:58:23.006Z,19.10
2023-01-19T23:00:53.110Z,18.03
2023-01-19T23:03:23.147Z,17.83
2023-01-19T23:05:53.151Z,18.33
2023-01-19T23:08:25.896Z,18.67
2023-01-19T23:10:55.837Z,17.33
2023-01-19T23:13:25.892Z,18.67
2023-01-19T23:15:55.960Z,19.23
2023-01-19T23:18:26.133Z,18.10
2023-01-19T23:20:56.151Z,18.53
2023-01-19T23:23:29.028Z,19.17
2023-01-19T23:26:02.708Z,18.30
2023-01-19T23:28:34.135Z,18.87
2023-01-19T23:31:04.352Z,19.10
2023-01-19T23:33:34.406Z,18.73
2023-01-19T23:36:04.615Z,18.50
2023-01-19T23:38:37.296Z,18.67
2023-01-19T23:41:07.637Z,17.43
2023-01-19T23:43:37.673Z,17.67
2023-01-19T23:46:09.067Z,18.87
2023-01-19T23:48:39.350Z,18.17
2023-01-19T23:51:10.407Z,19.37
2023-01-19T23:53:43.281Z,18.37
2023-01-19T23:56:14.794Z,18.20
2023-01-19T23:58:45.224Z,18.23
